sensor_id;sensor_type;location;lat;lon;timestamp;temperature;humidity
44447;DHT22;30152;52.066;5.358;2023-11-19T08:26:42;11.70;99.90
44447;DHT22;30152;52.066;5.358;2023-11-19T08:29:07;11.80;99.90
44447;DHT22;30152;52.066;5.358;2023-11-19T08:38:54;12.00;99.90
44447;DHT22;30152;52.066;5.358;2023-11-19T08:41:21;11.90;99.90
44447;DHT22;30152;52.066;5.358;2023-11-19T08:43:47;12.10;99.90
44447;DHT22;30152;52.066;5.358;2023-11-19T08:48:39;11.90;99.90
44447;DHT22;30152;52.066;5.358;2023-11-19T08:53:30;11.70;99.90
44447;DHT22;30152;52.066;5.358;2023-11-19T08:55:56;11.80;99.90
44447;DHT22;30152;52.066;5.358;2023-11-19T09:03:13;11.90;99.90
44447;DHT22;30152;52.066;5.358;2023-11-19T09:05:39;12.30;99.90
44447;DHT22;30152;52.066;5.358;2023-11-19T09:08:04;12.20;99.90
44447;DHT22;30152;52.066;5.358;2023-11-19T09:15:22;12.10;99.90
44447;DHT22;30152;52.066;5.358;2023-11-19T09:17:48;12.70;99.90
44447;DHT22;30152;52.066;5.358;2023-11-19T09:22:41;12.30;99.90
44447;DHT22;30152;52.066;5.358;2023-11-19T09:32:25;12.00;99.90
44447;DHT22;30152;52.066;5.358;2023-11-19T09:37:16;12.40;99.90
44447;DHT22;30152;52.066;5.358;2023-11-19T09:39:42;12.10;99.90
44447;DHT22;30152;52.066;5.358;2023-11-19T09:47:05;12.30;99.90
44447;DHT22;30152;52.066;5.358;2023-11-19T09:49:33;12.60;99.90
44447;DHT22;30152;52.066;5.358;2023-11-19T09:52:00;12.80;99.90
44447;DHT22;30152;52.066;5.358;2023-11-19T09:56:52;12.80;99.90
44447;DHT22;30152;52.066;5.358;2023-11-19T10:01:45;12.60;99.90
44447;DHT22;30152;52.066;5.358;2023-11-19T10:04:15;12.40;99.90
44447;DHT22;30152;52.066;5.358;2023-11-19T10:06:42;13.50;99.90
44447;DHT22;30152;52.066;5.358;2023-11-19T10:09:08;12.50;99.90
44447;DHT22;30152;52.066;5.358;2023-11-19T10:16:30;12.50;99.90
44447;DHT22;30152;52.066;5.358;2023-11-19T10:18:56;13.50;99.90
44447;DHT22;30152;52.066;5.358;2023-11-19T10:23:53;13.70;99.90
44447;DHT22;30152;52.066;5.358;2023-11-19T10:26:20;13.50;99.90
44447;DHT22;30152;52.066;5.358;2023-11-19T10:33:43;13.80;99.90
44447;DHT22;30152;52.066;5.358;2023-11-19T10:36:11;13.40;99.90
44447;DHT22;30152;52.066;5.358;2023-11-19T10:38:40;13.70;99.90
44447;DHT22;30152;52.066;5.358;2023-11-19T10:41:06;13.40;99.90
44447;DHT22;30152;52.066;5.358;2023-11-19T10:43:42;14.20;99.90
44447;DHT22;30152;52.066;5.358;2023-11-19T10:46:13;13.70;99.90
44447;DHT22;30152;52.066;5.358;2023-11-19T10:51:06;13.50;99.90
44447;DHT22;30152;52.066;5.358;2023-11-19T10:58:28;15.00;99.90
44447;DHT22;30152;52.066;5.358;2023-11-19T11:01:01;14.70;99.90
44447;DHT22;30152;52.066;5.358;2023-11-19T11:03:33;14.60;99.90
44447;DHT22;30152;52.066;5.358;2023-11-19T11:06:03;15.00;99.90
44447;DHT22;30152;52.066;5.358;2023-11-19T11:08:30;15.30;99.90
44447;DHT22;30152;52.066;5.358;2023-11-19T11:10:56;14.70;99.90
44447;DHT22;30152;52.066;5.358;2023-11-19T11:13:24;15.90;99.90
44447;DHT22;30152;52.066;5.358;2023-11-19T11:15:51;14.60;99.90
44447;DHT22;30152;52.066;5.358;2023-11-19T11:18:17;14.30;99.90
44447;DHT22;30152;52.066;5.358;2023-11-19T11:20:44;14.10;99.90
44447;DHT22;30152;52.066;5.358;2023-11-19T11:29:04;13.30;99.90
44447;DHT22;30152;52.066;5.358;2023-11-19T11:39:34;13.80;99.90
44447;DHT22;30152;52.066;5.358;2023-11-19T11:45:02;13.90;99.90
44447;DHT22;30152;52.066;5.358;2023-11-19T11:57:50;13.60;99.90
44447;DHT22;30152;52.066;5.358;2023-11-19T12:00:22;13.60;99.90
44447;DHT22;30152;52.066;5.358;2023-11-19T12:02:51;13.10;99.90
44447;DHT22;30152;52.066;5.358;2023-11-19T12:05:17;13.30;99.90
44447;DHT22;30152;52.066;5.358;2023-11-19T12:07:54;13.70;99.90
44447;DHT22;30152;52.066;5.358;2023-11-19T12:10:21;13.70;99.90
44447;DHT22;30152;52.066;5.358;2023-11-19T12:15:13;13.70;99.90
44447;DHT22;30152;52.066;5.358;2023-11-19T12:25:09;13.70;99.90
44447;DHT22;30152;52.066;5.358;2023-11-19T12:27:36;13.60;99.90
44447;DHT22;30152;52.066;5.358;2023-11-19T12:30:03;14.20;99.90
44447;DHT22;30152;52.066;5.358;2023-11-19T12:32:39;13.70;99.90
44447;DHT22;30152;52.066;5.358;2023-11-19T12:35:06;13.70;99.90
44447;DHT22;30152;52.066;5.358;2023-11-19T12:39:58;13.60;99.90
44447;DHT22;30152;52.066;5.358;2023-11-19T12:45:04;13.90;99.90
44447;DHT22;30152;52.066;5.358;2023-11-19T12:47:30;14.00;99.90
44447;DHT22;30152;52.066;5.358;2023-11-19T12:49:58;14.00;99.90
44447;DHT22;30152;52.066;5.358;2023-11-19T12:52:24;13.80;99.90
44447;DHT22;30152;52.066;5.358;2023-11-19T12:54:49;13.90;99.90
44447;DHT22;30152;52.066;5.358;2023-11-19T13:02:08;13.90;99.90
44447;DHT22;30152;52.066;5.358;2023-11-19T13:11:53;13.40;99.90
44447;DHT22;30152;52.066;5.358;2023-11-19T13:16:45;13.60;99.90
44447;DHT22;30152;52.066;5.358;2023-11-19T13:19:12;13.10;99.90
44447;DHT22;30152;52.066;5.358;2023-11-19T13:21:38;13.20;99.90
44447;DHT22;30152;52.066;5.358;2023-11-19T13:24:05;12.90;99.90
44447;DHT22;30152;52.066;5.358;2023-11-19T13:26:31;13.20;99.90
44447;DHT22;30152;52.066;5.358;2023-11-19T13:28:56;12.80;99.90
44447;DHT22;30152;52.066;5.358;2023-11-19T13:31:22;13.10;99.90
44447;DHT22;30152;52.066;5.358;2023-11-19T13:33:47;13.00;99.90
44447;DHT22;30152;52.066;5.358;2023-11-19T13:36:13;12.70;99.90
44447;DHT22;30152;52.066;5.358;2023-11-19T13:38:39;12.60;99.90
44447;DHT22;30152;52.066;5.358;2023-11-19T13:41:06;12.50;99.90
44447;DHT22;30152;52.066;5.358;2023-11-19T13:43:32;12.50;99.90
44447;DHT22;30152;52.066;5.358;2023-11-19T13:45:58;12.50;99.90
44447;DHT22;30152;52.066;5.358;2023-11-19T13:48:24;12.40;99.90
44447;DHT22;30152;52.066;5.358;2023-11-19T13:50:50;12.30;99.90
44447;DHT22;30152;52.066;5.358;2023-11-19T13:53:15;12.40;99.90
44447;DHT22;30152;52.066;5.358;2023-11-19T13:55:41;12.30;99.90
44447;DHT22;30152;52.066;5.358;2023-11-19T13:58:07;12.30;99.90
44447;DHT22;30152;52.066;5.358;2023-11-19T14:00:32;12.30;99.90
44447;DHT22;30152;52.066;5.358;2023-11-19T14:02:58;12.30;99.90
44447;DHT22;30152;52.066;5.358;2023-11-19T14:05:23;12.40;99.90
44447;DHT22;30152;52.066;5.358;2023-11-19T14:07:49;12.30;99.90
44447;DHT22;30152;52.066;5.358;2023-11-19T14:10:16;12.30;99.90
44447;DHT22;30152;52.066;5.358;2023-11-19T14:12:42;12.30;99.90
44447;DHT22;30152;52.066;5.358;2023-11-19T14:15:09;12.30;99.90
44447;DHT22;30152;52.066;5.358;2023-11-19T14:17:38;12.20;99.90
44447;DHT22;30152;52.066;5.358;2023-11-19T14:20:04;12.30;99.90
44447;DHT22;30152;52.066;5.358;2023-11-19T14:22:41;12.30;99.90
44447;DHT22;30152;52.066;5.358;2023-11-19T14:25:07;12.30;99.90
44447;DHT22;30152;52.066;5.358;2023-11-19T14:27:36;12.30;99.90
44447;DHT22;30152;52.066;5.358;2023-11-19T14:30:02;12.40;99.90
44447;DHT22;30152;52.066;5.358;2023-11-19T14:32:28;12.40;99.90
44447;DHT22;30152;52.066;5.358;2023-11-19T14:34:53;12.40;99.90
44447;DHT22;30152;52.066;5.358;2023-11-19T14:37:19;13.40;99.90
44447;DHT22;30152;52.066;5.358;2023-11-19T14:39:44;12.40;99.90
44447;DHT22;30152;52.066;5.358;2023-11-19T14:42:11;12.40;99.90
44447;DHT22;30152;52.066;5.358;2023-11-19T14:44:36;12.40;99.90
44447;DHT22;30152;52.066;5.358;2023-11-19T14:47:02;12.90;99.90
44447;DHT22;30152;52.066;5.358;2023-11-19T14:49:27;12.50;99.90
44447;DHT22;30152;52.066;5.358;2023-11-19T14:51:53;12.50;99.90
44447;DHT22;30152;52.066;5.358;2023-11-19T14:54:18;12.50;99.90
44447;DHT22;30152;52.066;5.358;2023-11-19T14:56:44;12.50;99.90
44447;DHT22;30152;52.066;5.358;2023-11-19T14:59:10;12.50;99.90
44447;DHT22;30152;52.066;5.358;2023-11-19T15:01:35;12.60;99.90
44447;DHT22;30152;52.066;5.358;2023-11-19T15:04:01;12.50;99.90
44447;DHT22;30152;52.066;5.358;2023-11-19T15:06:26;12.50;99.90
44447;DHT22;30152;52.066;5.358;2023-11-19T15:08:52;12.60;99.90
44447;DHT22;30152;52.066;5.358;2023-11-19T15:11:18;12.60;99.90
44447;DHT22;30152;52.066;5.358;2023-11-19T15:13:43;12.60;99.90
44447;DHT22;30152;52.066;5.358;2023-11-19T15:16:09;12.50;99.90
44447;DHT22;30152;52.066;5.358;2023-11-19T15:18:37;12.50;99.90
44447;DHT22;30152;52.066;5.358;2023-11-19T15:21:02;12.50;99.90
44447;DHT22;30152;52.066;5.358;2023-11-19T15:23:28;12.50;99.90
44447;DHT22;30152;52.066;5.358;2023-11-19T15:25:54;12.50;99.90
44447;DHT22;30152;52.066;5.358;2023-11-19T15:28:20;12.60;99.90
44447;DHT22;30152;52.066;5.358;2023-11-19T15:30:46;12.70;99.90
44447;DHT22;30152;52.066;5.358;2023-11-19T15:33:12;12.60;99.90
44447;DHT22;30152;52.066;5.358;2023-11-19T15:35:37;12.60;99.90
44447;DHT22;30152;52.066;5.358;2023-11-19T15:38:04;12.60;99.90
44447;DHT22;30152;52.066;5.358;2023-11-19T15:40:30;12.60;99.90
44447;DHT22;30152;52.066;5.358;2023-11-19T15:42:56;12.60;99.90
44447;DHT22;30152;52.066;5.358;2023-11-19T15:45:22;12.70;99.90
44447;DHT22;30152;52.066;5.358;2023-11-19T15:47:49;12.90;99.90
44447;DHT22;30152;52.066;5.358;2023-11-19T15:50:14;12.70;99.90
44447;DHT22;30152;52.066;5.358;2023-11-19T15:52:39;12.70;99.90
44447;DHT22;30152;52.066;5.358;2023-11-19T15:55:05;12.70;99.90
44447;DHT22;30152;52.066;5.358;2023-11-19T15:57:30;12.70;99.90
44447;DHT22;30152;52.066;5.358;2023-11-19T15:59:56;12.70;99.90
44447;DHT22;30152;52.066;5.358;2023-11-19T16:02:21;12.60;99.90
44447;DHT22;30152;52.066;5.358;2023-11-19T16:04:47;12.60;99.90
44447;DHT22;30152;52.066;5.358;2023-11-19T16:07:16;13.60;99.90
44447;DHT22;30152;52.066;5.358;2023-11-19T16:09:42;12.70;99.90
44447;DHT22;30152;52.066;5.358;2023-11-19T16:12:07;12.50;99.90
44447;DHT22;30152;52.066;5.358;2023-11-19T16:14:36;12.40;99.90
44447;DHT22;30152;52.066;5.358;2023-11-19T16:17:02;12.40;99.90
44447;DHT22;30152;52.066;5.358;2023-11-19T16:19:27;12.30;99.90
44447;DHT22;30152;52.066;5.358;2023-11-19T16:21:53;12.20;99.90
44447;DHT22;30152;52.066;5.358;2023-11-19T16:24:19;12.20;99.90
44447;DHT22;30152;52.066;5.358;2023-11-19T16:26:44;12.20;99.90
44447;DHT22;30152;52.066;5.358;2023-11-19T16:29:10;12.20;99.90
44447;DHT22;30152;52.066;5.358;2023-11-19T16:31:35;12.20;99.90
44447;DHT22;30152;52.066;5.358;2023-11-19T16:34:01;12.20;99.90
44447;DHT22;30152;52.066;5.358;2023-11-19T16:36:26;12.10;99.90
44447;DHT22;30152;52.066;5.358;2023-11-19T16:38:52;12.10;99.90
44447;DHT22;30152;52.066;5.358;2023-11-19T16:41:18;11.90;99.90
44447;DHT22;30152;52.066;5.358;2023-11-19T16:43:45;11.80;99.90
44447;DHT22;30152;52.066;5.358;2023-11-19T16:46:10;11.80;99.90
44447;DHT22;30152;52.066;5.358;2023-11-19T16:48:36;11.70;99.90
44447;DHT22;30152;52.066;5.358;2023-11-19T16:51:08;11.70;99.90
44447;DHT22;30152;52.066;5.358;2023-11-19T16:53:34;11.70;99.90
44447;DHT22;30152;52.066;5.358;2023-11-19T16:56:00;11.60;99.90
44447;DHT22;30152;52.066;5.358;2023-11-19T16:58:25;11.60;99.90
44447;DHT22;30152;52.066;5.358;2023-11-19T17:00:51;13.00;99.90
44447;DHT22;30152;52.066;5.358;2023-11-19T17:03:16;11.50;99.90
44447;DHT22;30152;52.066;5.358;2023-11-19T17:05:42;11.50;99.90
44447;DHT22;30152;52.066;5.358;2023-11-19T17:08:07;11.50;99.90
44447;DHT22;30152;52.066;5.358;2023-11-19T17:10:33;11.50;99.90
44447;DHT22;30152;52.066;5.358;2023-11-19T17:12:58;11.50;99.90
44447;DHT22;30152;52.066;5.358;2023-11-19T17:15:23;11.50;99.90
44447;DHT22;30152;52.066;5.358;2023-11-19T17:17:49;11.50;99.90
44447;DHT22;30152;52.066;5.358;2023-11-19T17:20:14;11.50;99.90
44447;DHT22;30152;52.066;5.358;2023-11-19T17:22:40;11.50;99.90
44447;DHT22;30152;52.066;5.358;2023-11-19T17:25:07;11.50;99.90
44447;DHT22;30152;52.066;5.358;2023-11-19T17:27:35;11.50;99.90
44447;DHT22;30152;52.066;5.358;2023-11-19T17:30:02;11.50;99.90
44447;DHT22;30152;52.066;5.358;2023-11-19T17:32:30;11.50;99.90
44447;DHT22;30152;52.066;5.358;2023-11-19T17:34:57;11.50;99.90
44447;DHT22;30152;52.066;5.358;2023-11-19T17:44:40;11.90;99.90
44447;DHT22;30152;52.066;5.358;2023-11-19T17:47:06;11.40;99.90
44447;DHT22;30152;52.066;5.358;2023-11-19T18:04:11;12.50;99.90
44447;DHT22;30152;52.066;5.358;2023-11-19T18:11:36;12.60;99.90
44447;DHT22;30152;52.066;5.358;2023-11-19T18:18:53;11.40;99.90
44447;DHT22;30152;52.066;5.358;2023-11-19T18:21:19;11.70;99.90
44447;DHT22;30152;52.066;5.358;2023-11-19T18:23:44;11.40;99.90
44447;DHT22;30152;52.066;5.358;2023-11-19T18:26:11;11.70;99.90
44447;DHT22;30152;52.066;5.358;2023-11-19T18:35:55;11.60;99.90
44447;DHT22;30152;52.066;5.358;2023-11-19T18:40:46;11.80;99.90
44447;DHT22;30152;52.066;5.358;2023-11-19T18:48:05;11.90;99.90
44447;DHT22;30152;52.066;5.358;2023-11-19T18:55:23;11.80;99.90
44447;DHT22;30152;52.066;5.358;2023-11-19T19:02:41;11.90;99.90
44447;DHT22;30152;52.066;5.358;2023-11-19T19:05:07;11.20;99.90
44447;DHT22;30152;52.066;5.358;2023-11-19T19:19:47;11.60;99.90
44447;DHT22;30152;52.066;5.358;2023-11-19T19:22:12;12.60;99.90
44447;DHT22;30152;52.066;5.358;2023-11-19T19:27:04;11.60;99.90
44447;DHT22;30152;52.066;5.358;2023-11-19T19:34:23;12.60;99.90
44447;DHT22;30152;52.066;5.358;2023-11-19T19:39:17;11.60;99.90
44447;DHT22;30152;52.066;5.358;2023-11-19T19:49:07;11.80;99.90
44447;DHT22;30152;52.066;5.358;2023-11-19T19:53:59;11.50;99.90
44447;DHT22;30152;52.066;5.358;2023-11-19T20:01:16;11.60;99.90
44447;DHT22;30152;52.066;5.358;2023-11-19T20:03:42;11.40;99.90
44447;DHT22;30152;52.066;5.358;2023-11-19T20:08:37;11.90;99.90
44447;DHT22;30152;52.066;5.358;2023-11-19T20:11:04;11.90;99.90
44447;DHT22;30152;52.066;5.358;2023-11-19T20:18:23;12.10;99.90
44447;DHT22;30152;52.066;5.358;2023-11-19T20:20:49;11.70;99.90
44447;DHT22;30152;52.066;5.358;2023-11-19T20:23:14;11.50;99.90
44447;DHT22;30152;52.066;5.358;2023-11-19T20:25:40;11.90;99.90
44447;DHT22;30152;52.066;5.358;2023-11-19T20:28:07;12.00;99.90
44447;DHT22;30152;52.066;5.358;2023-11-19T20:30:33;11.70;99.90
44447;DHT22;30152;52.066;5.358;2023-11-19T20:32:59;12.00;99.90
44447;DHT22;30152;52.066;5.358;2023-11-19T20:35:25;11.70;99.90
44447;DHT22;30152;52.066;5.358;2023-11-19T20:37:50;12.00;99.90
44447;DHT22;30152;52.066;5.358;2023-11-19T20:50:02;11.90;99.90
44447;DHT22;30152;52.066;5.358;2023-11-19T20:54:56;12.10;99.90
44447;DHT22;30152;52.066;5.358;2023-11-19T20:57:22;12.20;99.90
44447;DHT22;30152;52.066;5.358;2023-11-19T21:04:40;12.00;99.90
44447;DHT22;30152;52.066;5.358;2023-11-19T21:07:10;11.90;99.90
44447;DHT22;30152;52.066;5.358;2023-11-19T21:14:29;11.90;99.90
44447;DHT22;30152;52.066;5.358;2023-11-19T21:19:21;12.00;99.90
44447;DHT22;30152;52.066;5.358;2023-11-19T21:24:13;12.30;99.90
44447;DHT22;30152;52.066;5.358;2023-11-19T21:26:38;12.30;99.90
44447;DHT22;30152;52.066;5.358;2023-11-19T21:33:56;12.40;99.90
44447;DHT22;30152;52.066;5.358;2023-11-19T21:38:49;12.60;99.90
44447;DHT22;30152;52.066;5.358;2023-11-19T21:43:41;13.10;99.90
44447;DHT22;30152;52.066;5.358;2023-11-19T21:48:33;12.10;99.90
44447;DHT22;30152;52.066;5.358;2023-11-19T21:51:05;11.90;99.90
44447;DHT22;30152;52.066;5.358;2023-11-19T21:55:57;12.60;99.90
44447;DHT22;30152;52.066;5.358;2023-11-19T22:15:29;12.00;99.90
44447;DHT22;30152;52.066;5.358;2023-11-19T22:20:20;12.40;99.90
44447;DHT22;30152;52.066;5.358;2023-11-19T22:27:39;11.90;99.90
44447;DHT22;30152;52.066;5.358;2023-11-19T22:30:06;12.20;99.90
44447;DHT22;30152;52.066;5.358;2023-11-19T22:32:34;12.20;99.90
